Terminal Aerodrome Forecast
Issued by NWS

Current Version | Previous Version | Text Only | Print | Product List | Glossary On
Versions: 1 2 3 4 5 6 7 8 9 10 11 12 13 14 15 16 17 18 19 20 21 22 23 24 25 26 27
000
FTUS46 KLOX 241636 AAC
TAFLAX
TAF AMD
KLAX 241636Z 2417/2518 12005KT P6SM FEW150
     FM241800 24008KT P6SM SKC
     FM242100 26011KT P6SM SKC
     FM250700 13005KT P6SM SCT140
     FM251200 VRB05KT 6SM BR BKN008 BKN150
     FM251600 14005KT P6SM SCT010 SCT150=

USA.gov is the U.S. government's official web portal to all federal, state and local government web resources and services.